createdAt,value
2023-02-02T00:00:00.964Z,99704.13
2023-02-02T00:00:48.404Z,99712.09
2023-02-02T00:01:35.574Z,99713.94
2023-02-02T00:02:22.566Z,99712.25
2023-02-02T00:03:11.056Z,99724.94
2023-02-02T00:03:58.417Z,99729.84
2023-02-02T00:04:45.353Z,99744.69
2023-02-02T00:05:32.266Z,99740.91
2023-02-02T00:06:23.714Z,99745.47
2023-02-02T00:07:10.678Z,99751.00
2023-02-02T00:07:57.670Z,99777.41
2023-02-02T00:08:44.871Z,99818.63
2023-02-02T00:09:32.797Z,99835.25
2023-02-02T00:10:19.723Z,99815.28
2023-02-02T00:11:06.895Z,99809.13
2023-02-02T00:11:53.924Z,99814.47
2023-02-02T00:12:40.814Z,99817.31
2023-02-02T00:13:27.741Z,99808.22
2023-02-02T00:14:15.029Z,99803.97
2023-02-02T00:15:01.934Z,99793.16
2023-02-02T00:15:48.890Z,99801.59
2023-02-02T00:16:38.517Z,99809.87
2023-02-02T00:17:25.491Z,99807.34
2023-02-02T00:18:12.612Z,99795.37
2023-02-02T00:19:08.414Z,99798.34
2023-02-02T00:19:55.347Z,99803.84
2023-02-02T00:20:42.313Z,99816.09
2023-02-02T00:21:29.612Z,99804.53
2023-02-02T00:22:17.196Z,99802.31
2023-02-02T00:23:04.611Z,99803.84
2023-02-02T00:23:51.773Z,99802.56
2023-02-02T00:24:38.642Z,99795.13
2023-02-02T00:25:25.755Z,99799.88
2023-02-02T00:26:12.799Z,99799.06
2023-02-02T00:27:00.704Z,99802.69
2023-02-02T00:27:47.612Z,99800.78
2023-02-02T00:28:34.544Z,99801.75
2023-02-02T00:29:23.828Z,99797.13
2023-02-02T00:30:11.611Z,99803.59
2023-02-02T00:30:58.556Z,99804.44
2023-02-02T00:31:45.887Z,99798.53
2023-02-02T00:32:32.810Z,99795.59
2023-02-02T00:33:19.723Z,99795.75
2023-02-02T00:34:06.673Z,99791.53
2023-02-02T00:34:53.563Z,99786.06
2023-02-02T00:35:41.525Z,99781.94
2023-02-02T00:36:28.431Z,99784.47
2023-02-02T00:37:15.295Z,99775.06
2023-02-02T00:38:02.404Z,99781.38
2023-02-02T00:38:50.822Z,99774.75
2023-02-02T00:39:37.796Z,99782.78
2023-02-02T00:40:25.107Z,99777.44
2023-02-02T00:41:12.096Z,99781.94
2023-02-02T00:41:59.036Z,99775.62
2023-02-02T00:42:50.573Z,99773.09
2023-02-02T00:43:37.452Z,99774.50
2023-02-02T00:44:43.353Z,99765.09
2023-02-02T00:45:30.951Z,99765.59
2023-02-02T00:46:19.022Z,99763.94
2023-02-02T00:47:06.067Z,99749.31
2023-02-02T00:47:53.001Z,99761.97
2023-02-02T00:48:39.939Z,99758.44
2023-02-02T00:49:26.836Z,99756.87
2023-02-02T00:50:17.693Z,99755.88
2023-02-02T00:51:04.653Z,99757.84
2023-02-02T00:51:51.555Z,99758.28
2023-02-02T00:52:38.464Z,99758.03
2023-02-02T00:53:25.411Z,99757.06
2023-02-02T00:54:12.379Z,99750.84
2023-02-02T00:54:59.245Z,99754.22
2023-02-02T00:55:46.193Z,99740.03
2023-02-02T00:56:33.124Z,99741.41
2023-02-02T00:57:20.002Z,99743.41
2023-02-02T00:58:07.244Z,99745.50
2023-02-02T00:58:54.149Z,99760.81
2023-02-02T00:59:42.215Z,99758.28
2023-02-02T01:00:29.183Z,99760.13
2023-02-02T01:01:18.275Z,99765.91
2023-02-02T01:02:05.279Z,99764.19
2023-02-02T01:02:53.354Z,99764.63
2023-02-02T01:03:40.282Z,99762.50
2023-02-02T01:04:27.222Z,99770.81
2023-02-02T01:05:14.338Z,99776.56
2023-02-02T01:06:01.269Z,99775.84
2023-02-02T01:06:48.233Z,99772.34
2023-02-02T01:07:35.234Z,99776.84
2023-02-02T01:08:22.162Z,99774.56
2023-02-02T01:09:09.056Z,99769.06
2023-02-02T01:09:56.051Z,99775.50
2023-02-02T01:10:42.968Z,99776.78
2023-02-02T01:11:31.114Z,99781.75
2023-02-02T01:12:18.063Z,99773.47
2023-02-02T01:13:05.377Z,99769.06
2023-02-02T01:13:52.554Z,99782.44
2023-02-02T01:14:39.541Z,99779.06
2023-02-02T01:15:26.603Z,99775.28
2023-02-02T01:16:13.667Z,99775.16
2023-02-02T01:17:00.744Z,99772.78
2023-02-02T01:17:47.694Z,99760.97
2023-02-02T01:18:34.612Z,99764.47
2023-02-02T01:19:21.480Z,99765.16
2023-02-02T01:20:09.393Z,99759.44
2023-02-02T01:21:08.132Z,99761.22
2023-02-02T01:21:55.033Z,99757.16
2023-02-02T01:22:42.044Z,99733.28
2023-02-02T01:23:29.171Z,99744.72
2023-02-02T01:24:16.059Z,99729.22
2023-02-02T01:25:02.964Z,99716.03
2023-02-02T01:26:00.541Z,99744.16
2023-02-02T01:26:47.535Z,99731.22
2023-02-02T01:27:34.468Z,99740.09
2023-02-02T01:28:21.802Z,99733.34
2023-02-02T01:29:08.830Z,99743.84
2023-02-02T01:29:55.742Z,99744.72
2023-02-02T01:30:42.630Z,99738.94
2023-02-02T01:31:29.614Z,99746.38
2023-02-02T01:32:16.581Z,99740.59
2023-02-02T01:33:03.488Z,99738.69
2023-02-02T01:33:50.505Z,99744.84
2023-02-02T01:34:41.878Z,99753.41
2023-02-02T01:35:28.772Z,99749.63
2023-02-02T01:36:21.013Z,99755.09
2023-02-02T01:37:08.942Z,99752.56
2023-02-02T01:37:55.858Z,99748.06
2023-02-02T01:38:42.883Z,99747.66
2023-02-02T01:39:29.848Z,99747.78
2023-02-02T01:40:16.811Z,99749.44
2023-02-02T01:41:07.417Z,99752.25
2023-02-02T01:41:54.152Z,99753.81
2023-02-02T01:42:41.090Z,99743.56
2023-02-02T01:43:30.606Z,99745.94
2023-02-02T01:44:54.902Z,99745.66
2023-02-02T01:45:41.918Z,99740.59
2023-02-02T01:46:31.643Z,99741.63
2023-02-02T01:47:20.864Z,99741.47
2023-02-02T01:48:07.746Z,99739.78
2023-02-02T01:49:01.654Z,99748.78
2023-02-02T01:49:48.671Z,99745.56
2023-02-02T01:50:36.012Z,99743.84
2023-02-02T01:51:27.744Z,99749.19
2023-02-02T01:52:16.084Z,99752.31
2023-02-02T01:53:03.761Z,99748.09
2023-02-02T01:53:53.890Z,99739.38
2023-02-02T01:54:48.722Z,99746.00
2023-02-02T01:55:37.983Z,99748.09
2023-02-02T01:56:34.520Z,99739.81
2023-02-02T01:57:44.366Z,99749.66
2023-02-02T01:58:36.092Z,99751.78
2023-02-02T01:59:23.083Z,99752.59
2023-02-02T02:00:12.763Z,99745.44
2023-02-02T02:00:59.773Z,99751.34
2023-02-02T02:01:48.250Z,99759.22
2023-02-02T02:02:35.686Z,99758.47
2023-02-02T02:03:25.387Z,99759.75
2023-02-02T02:04:12.509Z,99773.81
2023-02-02T02:05:02.260Z,99776.91
2023-02-02T02:06:13.620Z,99796.31
2023-02-02T02:07:02.235Z,99788.84
2023-02-02T02:07:50.038Z,99784.22
2023-02-02T02:08:47.656Z,99791.41
2023-02-02T02:09:35.180Z,99780.00
2023-02-02T02:10:22.101Z,99786.19
2023-02-02T02:11:08.963Z,99793.94
2023-02-02T02:11:56.190Z,99789.84
2023-02-02T02:12:43.131Z,99792.81
2023-02-02T02:13:49.561Z,99795.19
2023-02-02T02:14:55.266Z,99798.28
2023-02-02T02:16:14.747Z,99799.72
2023-02-02T02:17:46.662Z,99798.88
2023-02-02T02:18:45.532Z,99802.81
2023-02-02T02:20:19.079Z,99797.72
2023-02-02T02:21:35.500Z,99799.56
2023-02-02T02:22:41.302Z,99801.09
2023-02-02T02:23:59.269Z,99800.56
2023-02-02T02:25:45.980Z,99816.56
2023-02-02T02:26:54.386Z,99806.31
2023-02-02T02:27:47.218Z,99802.22
2023-02-02T02:28:53.020Z,99770.75
2023-02-02T02:29:54.781Z,99763.75
2023-02-02T02:31:09.127Z,99752.50
2023-02-02T02:32:06.301Z,99750.53
2023-02-02T02:33:03.304Z,99754.44
2023-02-02T02:34:08.830Z,99760.94
2023-02-02T02:35:14.403Z,99765.84
2023-02-02T02:36:20.139Z,99784.78
2023-02-02T02:37:14.468Z,99780.16
2023-02-02T02:38:09.874Z,99786.63
2023-02-02T02:39:20.479Z,99798.56
2023-02-02T02:40:53.309Z,99805.44
2023-02-02T02:41:46.185Z,99801.19
2023-02-02T02:42:36.886Z,99794.91
2023-02-02T02:43:36.673Z,99796.56
2023-02-02T02:44:24.389Z,99791.34
2023-02-02T02:45:12.376Z,99795.16
2023-02-02T02:45:59.415Z,99800.91
2023-02-02T02:46:47.201Z,99807.06
2023-02-02T02:47:35.541Z,99808.19
2023-02-02T02:48:22.692Z,99808.91
2023-02-02T02:49:10.791Z,99807.38
2023-02-02T02:49:57.709Z,99803.31
2023-02-02T02:50:44.668Z,99795.16
2023-02-02T02:51:45.802Z,99792.47
2023-02-02T02:52:33.701Z,99785.72
2023-02-02T02:53:24.150Z,99781.41
2023-02-02T02:54:20.092Z,99773.81
2023-02-02T02:55:07.841Z,99761.31
2023-02-02T02:56:00.620Z,99763.81
2023-02-02T02:56:50.261Z,99748.81
2023-02-02T02:58:22.119Z,99745.03
2023-02-02T02:59:22.985Z,99746.53
2023-02-02T03:00:28.114Z,99747.66
2023-02-02T03:01:20.999Z,99753.00
2023-02-02T03:02:37.877Z,99756.19
2023-02-02T03:03:55.676Z,99754.22
2023-02-02T03:05:09.930Z,99752.81
2023-02-02T03:06:11.110Z,99742.16
2023-02-02T03:07:01.429Z,99750.28
2023-02-02T03:07:53.432Z,99750.09
2023-02-02T03:09:03.064Z,99754.19
2023-02-02T03:09:51.617Z,99761.34
2023-02-02T03:10:40.899Z,99766.97
2023-02-02T03:11:27.927Z,99762.34
2023-02-02T03:12:17.062Z,99763.84
2023-02-02T03:13:08.303Z,99763.97
2023-02-02T03:13:55.951Z,99761.59
2023-02-02T03:14:43.097Z,99770.94
2023-02-02T03:15:30.037Z,99774.72
2023-02-02T03:16:17.566Z,99779.34
2023-02-02T03:17:04.510Z,99782.13
2023-02-02T03:17:52.064Z,99778.78
2023-02-02T03:18:39.231Z,99774.41
2023-02-02T03:19:26.179Z,99770.59
2023-02-02T03:20:13.740Z,99769.31
2023-02-02T03:21:00.837Z,99769.69
2023-02-02T03:21:47.757Z,99773.78
2023-02-02T03:22:34.658Z,99770.94
2023-02-02T03:23:21.542Z,99771.87
2023-02-02T03:24:08.564Z,99779.34
2023-02-02T03:24:57.070Z,99774.00
2023-02-02T03:25:44.011Z,99771.66
2023-02-02T03:26:30.943Z,99771.38
2023-02-02T03:27:17.897Z,99773.09
2023-02-02T03:28:05.637Z,99774.97
2023-02-02T03:28:52.730Z,99785.06
2023-02-02T03:29:39.630Z,99787.56
2023-02-02T03:30:26.606Z,99790.38
2023-02-02T03:31:14.117Z,99795.50
2023-02-02T03:32:01.378Z,99797.44
2023-02-02T03:32:48.320Z,99795.16
2023-02-02T03:33:37.994Z,99787.91
2023-02-02T03:34:24.900Z,99791.66
2023-02-02T03:35:11.864Z,99794.06
2023-02-02T03:35:58.791Z,99793.47
2023-02-02T03:36:45.741Z,99798.78
2023-02-02T03:37:32.653Z,99797.22
2023-02-02T03:38:19.600Z,99811.25
2023-02-02T03:39:06.522Z,99810.19
2023-02-02T03:39:53.856Z,99802.66
2023-02-02T03:40:41.162Z,99809.94
2023-02-02T03:41:28.050Z,99807.28
2023-02-02T03:42:14.990Z,99804.16
2023-02-02T03:43:02.102Z,99805.88
2023-02-02T03:43:48.998Z,99806.94
2023-02-02T03:44:36.018Z,99804.44
2023-02-02T03:45:23.400Z,99798.19
2023-02-02T03:46:10.815Z,99797.78
2023-02-02T03:46:57.750Z,99801.41
2023-02-02T03:47:44.667Z,99796.75
2023-02-02T03:48:32.527Z,99795.56
2023-02-02T03:49:19.452Z,99793.59
2023-02-02T03:50:09.119Z,99787.19
2023-02-02T03:50:57.293Z,99785.38
2023-02-02T03:51:44.586Z,99779.47
2023-02-02T03:52:31.515Z,99771.03
2023-02-02T03:53:18.603Z,99781.66
2023-02-02T03:54:05.596Z,99775.50
2023-02-02T03:54:52.544Z,99772.69
2023-02-02T03:55:40.822Z,99777.53
2023-02-02T03:56:27.720Z,99773.41
2023-02-02T03:57:14.678Z,99775.69
2023-02-02T03:58:01.589Z,99776.69
2023-02-02T03:58:48.577Z,99769.19
2023-02-02T03:59:35.552Z,99771.25
2023-02-02T04:00:22.664Z,99772.59
2023-02-02T04:01:12.805Z,99771.66
2023-02-02T04:01:59.770Z,99771.31
2023-02-02T04:02:47.064Z,99770.47
2023-02-02T04:03:34.532Z,99775.56
2023-02-02T04:04:21.561Z,99775.28
2023-02-02T04:05:08.692Z,99780.37
2023-02-02T04:05:55.698Z,99785.44
2023-02-02T04:06:42.652Z,99775.28
2023-02-02T04:07:29.532Z,99778.06
2023-02-02T04:08:16.449Z,99778.28
2023-02-02T04:09:03.514Z,99775.13
2023-02-02T04:09:50.454Z,99780.56
2023-02-02T04:10:39.070Z,99784.94
2023-02-02T04:11:25.952Z,99780.81
2023-02-02T04:12:12.892Z,99776.72
2023-02-02T04:12:59.781Z,99777.22
2023-02-02T04:13:46.683Z,99777.34
2023-02-02T04:14:33.613Z,99777.78
2023-02-02T04:15:20.549Z,99774.78
2023-02-02T04:16:07.665Z,99781.66
2023-02-02T04:16:54.586Z,99779.37
2023-02-02T04:17:41.510Z,99774.69
2023-02-02T04:18:29.131Z,99777.47
2023-02-02T04:19:16.163Z,99779.87
2023-02-02T04:20:05.181Z,99783.12
2023-02-02T04:20:57.483Z,99782.78
2023-02-02T04:21:44.392Z,99792.19
2023-02-02T04:22:31.430Z,99789.06
2023-02-02T04:23:18.715Z,99783.16
2023-02-02T04:24:07.235Z,99788.59
2023-02-02T04:24:54.151Z,99789.06
2023-02-02T04:25:49.448Z,99781.22
2023-02-02T04:26:36.384Z,99781.34
2023-02-02T04:27:23.783Z,99791.25
2023-02-02T04:28:10.662Z,99792.94
2023-02-02T04:28:57.637Z,99798.13
2023-02-02T04:29:44.648Z,99793.13
2023-02-02T04:30:31.596Z,99789.31
2023-02-02T04:31:18.711Z,99792.69
2023-02-02T04:32:05.724Z,99795.91
2023-02-02T04:32:52.694Z,99791.19
2023-02-02T04:33:39.623Z,99790.47
2023-02-02T04:34:26.532Z,99789.69
2023-02-02T04:35:13.486Z,99793.41
2023-02-02T04:36:00.415Z,99787.87
2023-02-02T04:36:48.110Z,99787.37
2023-02-02T04:37:35.065Z,99782.28
2023-02-02T04:38:22.439Z,99789.03
2023-02-02T04:39:12.031Z,99792.75
2023-02-02T04:39:58.912Z,99795.97
2023-02-02T04:40:47.422Z,99794.87
2023-02-02T04:41:34.312Z,99797.53
2023-02-02T04:42:21.233Z,99794.16
2023-02-02T04:43:08.514Z,99805.78
2023-02-02T04:43:55.412Z,99792.38
2023-02-02T04:44:44.235Z,99796.84
2023-02-02T04:45:31.140Z,99799.62
2023-02-02T04:46:18.104Z,99795.91
2023-02-02T04:47:05.131Z,99794.56
2023-02-02T04:47:52.032Z,99800.00
2023-02-02T04:48:39.282Z,99805.00
2023-02-02T04:49:26.250Z,99813.62
2023-02-02T04:50:13.162Z,99807.19
2023-02-02T04:51:01.441Z,99813.34
2023-02-02T04:51:50.486Z,99811.41
2023-02-02T04:52:37.411Z,99814.09
2023-02-02T04:53:24.355Z,99811.69
2023-02-02T04:54:11.283Z,99818.31
2023-02-02T04:54:58.190Z,99808.28
2023-02-02T04:55:45.082Z,99810.09
2023-02-02T04:56:32.015Z,99808.16
2023-02-02T04:57:18.954Z,99810.47
2023-02-02T04:58:06.154Z,99822.44
2023-02-02T04:58:55.171Z,99823.38
2023-02-02T04:59:42.539Z,99818.91
2023-02-02T05:00:29.540Z,99816.34
2023-02-02T05:01:20.264Z,99817.44
2023-02-02T05:02:07.192Z,99821.81
2023-02-02T05:02:54.112Z,99815.66
2023-02-02T05:03:41.040Z,99823.28
2023-02-02T05:04:28.101Z,99828.13
2023-02-02T05:05:15.252Z,99816.75
2023-02-02T05:06:03.448Z,99807.84
2023-02-02T05:06:50.434Z,99818.84
2023-02-02T05:07:37.620Z,99814.72
2023-02-02T05:08:24.562Z,99817.37
2023-02-02T05:09:11.525Z,99820.28
2023-02-02T05:09:58.530Z,99824.28
2023-02-02T05:10:45.498Z,99818.72
2023-02-02T05:11:32.492Z,99811.72
2023-02-02T05:12:19.420Z,99808.94
2023-02-02T05:13:06.305Z,99815.94
2023-02-02T05:13:54.583Z,99821.16
2023-02-02T05:14:41.512Z,99817.03
2023-02-02T05:15:28.398Z,99812.66
2023-02-02T05:16:15.592Z,99815.56
2023-02-02T05:17:02.529Z,99821.00
2023-02-02T05:17:49.815Z,99819.44
2023-02-02T05:18:36.753Z,99826.09
2023-02-02T05:19:23.675Z,99822.97
2023-02-02T05:20:11.150Z,99819.56
2023-02-02T05:21:02.000Z,99817.53
2023-02-02T05:21:51.355Z,99824.88
2023-02-02T05:22:38.773Z,99835.03
2023-02-02T05:23:25.655Z,99833.84
2023-02-02T05:24:12.943Z,99839.50
2023-02-02T05:24:59.832Z,99839.25
2023-02-02T05:25:53.233Z,99845.19
2023-02-02T05:26:40.311Z,99841.31
2023-02-02T05:27:27.232Z,99845.53
2023-02-02T05:28:14.106Z,99832.72
2023-02-02T05:29:01.000Z,99845.06
2023-02-02T05:29:48.468Z,99838.91
2023-02-02T05:30:35.453Z,99845.66
2023-02-02T05:31:22.665Z,99839.97
2023-02-02T05:32:09.734Z,99849.16
2023-02-02T05:32:56.683Z,99844.69
2023-02-02T05:33:43.664Z,99842.41
2023-02-02T05:34:30.591Z,99844.19
2023-02-02T05:35:17.594Z,99838.41
2023-02-02T05:36:05.254Z,99844.09
2023-02-02T05:36:52.743Z,99842.53
2023-02-02T05:37:39.662Z,99844.19
2023-02-02T05:38:26.635Z,99846.47
2023-02-02T05:39:13.701Z,99843.72
2023-02-02T05:40:00.576Z,99850.13
2023-02-02T05:40:49.249Z,99840.81
2023-02-02T05:41:36.295Z,99845.19
2023-02-02T05:42:23.258Z,99848.78
2023-02-02T05:43:10.231Z,99846.63
2023-02-02T05:43:59.737Z,99841.44
2023-02-02T05:44:46.675Z,99837.22
2023-02-02T05:45:33.579Z,99833.84
2023-02-02T05:46:20.632Z,99837.34
2023-02-02T05:47:07.612Z,99844.94
2023-02-02T05:47:55.996Z,99841.31
2023-02-02T05:48:42.921Z,99838.06
2023-02-02T05:49:29.953Z,99835.53
2023-02-02T05:50:17.032Z,99832.13
2023-02-02T05:51:08.204Z,99837.94
2023-02-02T05:51:57.428Z,99832.50
2023-02-02T05:52:45.477Z,99840.09
2023-02-02T05:53:33.024Z,99838.41
2023-02-02T05:54:20.801Z,99827.19
2023-02-02T05:55:08.350Z,99831.53
2023-02-02T05:55:55.207Z,99825.50
2023-02-02T05:56:42.123Z,99833.00
2023-02-02T05:57:29.111Z,99822.72
2023-02-02T05:58:15.995Z,99826.56
2023-02-02T05:59:07.595Z,99825.09
2023-02-02T05:59:55.003Z,99827.66
2023-02-02T06:00:42.002Z,99826.19
2023-02-02T06:01:28.922Z,99820.75
2023-02-02T06:02:15.865Z,99824.84
2023-02-02T06:03:02.853Z,99821.34
2023-02-02T06:03:50.120Z,99821.09
2023-02-02T06:04:37.127Z,99821.06
2023-02-02T06:05:24.266Z,99826.75
2023-02-02T06:06:11.437Z,99814.28
2023-02-02T06:06:58.404Z,99816.69
2023-02-02T06:07:45.310Z,99814.03
2023-02-02T06:08:32.215Z,99809.31
2023-02-02T06:09:19.380Z,99817.19
2023-02-02T06:10:06.562Z,99818.22
2023-02-02T06:10:54.211Z,99815.06
2023-02-02T06:11:41.143Z,99814.81
2023-02-02T06:12:28.033Z,99814.81
2023-02-02T06:13:15.006Z,99810.09
2023-02-02T06:14:02.119Z,99816.50
2023-02-02T06:14:49.119Z,99817.69
2023-02-02T06:15:36.899Z,99826.09
2023-02-02T06:16:24.371Z,99820.66
2023-02-02T06:17:11.420Z,99818.44
2023-02-02T06:17:58.963Z,99819.06
2023-02-02T06:18:45.911Z,99813.62
2023-02-02T06:19:32.901Z,99818.41
2023-02-02T06:20:22.285Z,99828.28
2023-02-02T06:21:10.412Z,99828.16
2023-02-02T06:21:57.331Z,99825.22
2023-02-02T06:22:44.294Z,99830.75
2023-02-02T06:23:31.252Z,99831.28
2023-02-02T06:24:18.241Z,99830.75
2023-02-02T06:25:05.871Z,99829.66
2023-02-02T06:25:52.851Z,99825.03
2023-02-02T06:26:39.783Z,99823.69
2023-02-02T06:27:26.791Z,99822.97
2023-02-02T06:28:13.660Z,99818.47
2023-02-02T06:29:00.616Z,99828.88
2023-02-02T06:29:47.723Z,99828.34
2023-02-02T06:30:35.044Z,99827.81
2023-02-02T06:31:22.565Z,99830.06
2023-02-02T06:32:09.536Z,99829.00
2023-02-02T06:32:56.497Z,99828.00
2023-02-02T06:33:43.418Z,99831.50
2023-02-02T06:34:30.363Z,99833.22
2023-02-02T06:35:17.461Z,99845.41
2023-02-02T06:36:06.480Z,99833.66
2023-02-02T06:36:53.581Z,99838.00
2023-02-02T06:37:42.336Z,99832.00
2023-02-02T06:38:29.424Z,99834.28
2023-02-02T06:39:16.356Z,99825.44
2023-02-02T06:40:03.370Z,99836.81
2023-02-02T06:40:50.291Z,99836.16
2023-02-02T06:41:37.254Z,99835.03
2023-02-02T06:42:24.128Z,99842.38
2023-02-02T06:43:15.228Z,99838.72
2023-02-02T06:44:02.352Z,99846.13
2023-02-02T06:44:49.306Z,99841.78
2023-02-02T06:45:40.427Z,99847.94
2023-02-02T06:46:27.412Z,99843.47
2023-02-02T06:47:14.441Z,99849.66
2023-02-02T06:48:04.304Z,99851.63
2023-02-02T06:48:51.292Z,99849.78
2023-02-02T06:49:38.250Z,99850.38
2023-02-02T06:50:25.194Z,99844.88
2023-02-02T06:51:12.118Z,99848.97
2023-02-02T06:51:59.139Z,99851.63
2023-02-02T06:52:50.303Z,99855.16
2023-02-02T06:53:37.218Z,99856.84
2023-02-02T06:54:24.082Z,99854.31
2023-02-02T06:55:11.014Z,99859.62
2023-02-02T06:56:04.724Z,99859.38
2023-02-02T06:56:51.642Z,99847.19
2023-02-02T06:57:38.601Z,99857.97
2023-02-02T06:58:25.502Z,99871.78
2023-02-02T06:59:12.401Z,99864.19
2023-02-02T06:59:59.324Z,99864.37
2023-02-02T07:00:47.003Z,99867.62
2023-02-02T07:01:34.059Z,99862.13
2023-02-02T07:02:23.523Z,99859.22
2023-02-02T07:03:10.539Z,99871.00
2023-02-02T07:03:57.648Z,99868.50
2023-02-02T07:04:44.673Z,99873.25
2023-02-02T07:05:31.856Z,99880.84
2023-02-02T07:06:21.229Z,99872.72
2023-02-02T07:07:08.100Z,99879.19
2023-02-02T07:07:55.132Z,99875.38
2023-02-02T07:08:42.332Z,99879.16
2023-02-02T07:09:29.359Z,99884.81
2023-02-02T07:11:11.935Z,99887.16
2023-02-02T07:11:23.940Z,99881.25
2023-02-02T07:12:11.069Z,99889.72
2023-02-02T07:12:58.023Z,99891.69
2023-02-02T07:13:46.104Z,99890.72
2023-02-02T07:14:33.109Z,99888.88
2023-02-02T07:15:20.007Z,99895.66
2023-02-02T07:16:09.671Z,99893.09
2023-02-02T07:16:56.680Z,99894.22
2023-02-02T07:17:43.576Z,99893.63
2023-02-02T07:18:30.761Z,99899.44
2023-02-02T07:19:17.641Z,99902.69
2023-02-02T07:20:04.970Z,99900.03
2023-02-02T07:20:51.913Z,99908.75
2023-02-02T07:21:38.922Z,99907.31
2023-02-02T07:22:25.790Z,99900.19
2023-02-02T07:23:12.842Z,99903.69
2023-02-02T07:23:59.779Z,99898.34
2023-02-02T07:24:46.717Z,99907.19
2023-02-02T07:25:33.746Z,99907.09
2023-02-02T07:26:20.853Z,99903.25
2023-02-02T07:27:07.889Z,99909.03
2023-02-02T07:27:55.285Z,99902.72
2023-02-02T07:28:43.072Z,99910.47
2023-02-02T07:29:32.132Z,99903.00
2023-02-02T07:30:19.500Z,99900.47
2023-02-02T07:31:17.511Z,99901.19
2023-02-02T07:32:04.594Z,99903.00
2023-02-02T07:32:51.495Z,99911.72
2023-02-02T07:33:40.442Z,99906.78
2023-02-02T07:34:27.326Z,99906.25
2023-02-02T07:35:14.793Z,99905.53
2023-02-02T07:36:02.125Z,99908.34
2023-02-02T07:36:49.267Z,99912.84
2023-02-02T07:37:36.558Z,99910.59
2023-02-02T07:38:24.125Z,99908.50
2023-02-02T07:39:12.033Z,99905.25
2023-02-02T07:39:58.950Z,99912.84
2023-02-02T07:40:46.367Z,99899.22
2023-02-02T07:41:35.145Z,99910.88
2023-02-02T07:42:22.072Z,99907.63
2023-02-02T07:43:09.791Z,99903.81
2023-02-02T07:43:56.722Z,99914.38
2023-02-02T07:44:43.624Z,99908.91
2023-02-02T07:45:31.019Z,99912.97
2023-02-02T07:46:20.953Z,99913.38
2023-02-02T07:47:07.841Z,99912.94
2023-02-02T07:48:01.221Z,99905.22
2023-02-02T07:48:48.376Z,99908.91
2023-02-02T07:49:35.314Z,99915.22
2023-02-02T07:50:22.252Z,99915.91
2023-02-02T07:51:12.570Z,99913.09
2023-02-02T07:51:59.525Z,99921.00
2023-02-02T07:52:46.433Z,99920.03
2023-02-02T07:53:34.193Z,99919.03
2023-02-02T07:54:21.314Z,99922.41
2023-02-02T07:55:25.997Z,99922.22
2023-02-02T07:56:15.404Z,99924.06
2023-02-02T07:57:02.513Z,99929.16
2023-02-02T07:57:49.532Z,99925.03
2023-02-02T07:58:37.221Z,99922.50
2023-02-02T07:59:24.192Z,99923.31
2023-02-02T08:00:11.741Z,99919.50
2023-02-02T08:01:05.952Z,99923.66
2023-02-02T08:01:53.203Z,99934.06
2023-02-02T08:02:40.252Z,99932.91
2023-02-02T08:03:27.159Z,99935.28
2023-02-02T08:04:14.165Z,99926.66
2023-02-02T08:05:01.166Z,99938.78
2023-02-02T08:05:48.323Z,99943.13
2023-02-02T08:06:40.333Z,99928.75
2023-02-02T08:07:27.513Z,99936.53
2023-02-02T08:08:14.672Z,99931.87
2023-02-02T08:09:02.166Z,99941.84
2023-02-02T08:09:49.264Z,99935.06
2023-02-02T08:10:36.154Z,99932.63
2023-02-02T08:11:24.263Z,99934.38
2023-02-02T08:12:11.163Z,99926.06
2023-02-02T08:12:58.086Z,99935.31
2023-02-02T08:13:45.596Z,99929.03
2023-02-02T08:14:32.931Z,99928.84
2023-02-02T08:15:19.847Z,99927.28
2023-02-02T08:16:07.405Z,99927.84
2023-02-02T08:16:54.340Z,99931.31
2023-02-02T08:17:45.695Z,99923.97
2023-02-02T08:18:33.969Z,99925.84
2023-02-02T08:19:20.940Z,99916.28
2023-02-02T08:20:08.541Z,99929.47
2023-02-02T08:20:58.991Z,99918.59
2023-02-02T08:21:45.893Z,99929.56
2023-02-02T08:22:32.900Z,99930.47
2023-02-02T08:23:23.796Z,99925.50
2023-02-02T08:24:10.859Z,99921.47
2023-02-02T08:24:57.755Z,99929.66
2023-02-02T08:25:44.651Z,99929.09
2023-02-02T08:26:31.789Z,99923.13
2023-02-02T08:27:18.741Z,99933.84
2023-02-02T08:28:06.309Z,99927.81
2023-02-02T08:28:55.699Z,99929.50
2023-02-02T08:29:42.862Z,99933.56
2023-02-02T08:30:29.832Z,99937.69
2023-02-02T08:31:22.504Z,99932.56
2023-02-02T08:32:09.643Z,99930.78
2023-02-02T08:32:56.550Z,99925.75
2023-02-02T08:33:44.024Z,99939.59
2023-02-02T08:34:31.442Z,99936.25
2023-02-02T08:35:19.611Z,99929.88
2023-02-02T08:36:11.933Z,99925.91
2023-02-02T08:36:58.846Z,99930.41
2023-02-02T08:37:49.505Z,99935.69
2023-02-02T08:38:36.350Z,99940.44
2023-02-02T08:39:23.346Z,99929.56
2023-02-02T08:40:11.018Z,99942.75
2023-02-02T08:41:06.020Z,99941.06
2023-02-02T08:41:55.887Z,99941.06
2023-02-02T08:42:43.645Z,99935.19
2023-02-02T08:43:30.555Z,99942.75
2023-02-02T08:44:17.790Z,99942.28
2023-02-02T08:46:03.858Z,99938.78
2023-02-02T08:46:15.829Z,99935.62
2023-02-02T08:47:03.062Z,99935.78
2023-02-02T08:47:58.886Z,99936.44
2023-02-02T08:48:52.378Z,99940.06
2023-02-02T08:49:39.327Z,99936.69
2023-02-02T08:50:26.332Z,99922.97
2023-02-02T08:51:16.090Z,99926.34
2023-02-02T08:52:03.225Z,99926.97
2023-02-02T08:52:50.124Z,99917.91
2023-02-02T08:53:37.087Z,99921.97
2023-02-02T08:54:24.128Z,99919.84
2023-02-02T08:55:11.051Z,99931.94
2023-02-02T08:56:10.951Z,99933.59
2023-02-02T08:56:59.868Z,99922.59
2023-02-02T08:57:46.719Z,99928.31
2023-02-02T08:58:34.332Z,99926.47
2023-02-02T08:59:21.231Z,99928.62
2023-02-02T09:00:08.736Z,99932.37
2023-02-02T09:00:55.769Z,99926.31
2023-02-02T09:01:42.751Z,99928.62
2023-02-02T09:02:29.706Z,99934.84
2023-02-02T09:03:17.052Z,99930.53
2023-02-02T09:04:09.032Z,99930.38
2023-02-02T09:04:55.942Z,99938.06
2023-02-02T09:05:42.972Z,99945.78
2023-02-02T09:06:35.371Z,99945.69
2023-02-02T09:07:22.325Z,99944.91
2023-02-02T09:08:09.374Z,99947.72
2023-02-02T09:08:56.346Z,99944.91
2023-02-02T09:09:43.253Z,99948.75
2023-02-02T09:10:32.202Z,99951.09
2023-02-02T09:11:20.334Z,99967.88
2023-02-02T09:12:07.401Z,99944.34
2023-02-02T09:12:54.363Z,99956.31
2023-02-02T09:13:42.757Z,99954.94
2023-02-02T09:14:29.848Z,99949.28
2023-02-02T09:15:16.851Z,99949.28
2023-02-02T09:16:05.953Z,99956.78
2023-02-02T09:16:52.976Z,99954.81
2023-02-02T09:17:39.914Z,99952.41
2023-02-02T09:18:28.891Z,99952.19
2023-02-02T09:19:15.845Z,99958.47
2023-02-02T09:20:02.871Z,99954.41
2023-02-02T09:20:49.823Z,99949.84
2023-02-02T09:21:37.613Z,99956.84
2023-02-02T09:22:24.605Z,99946.31
2023-02-02T09:23:11.528Z,99937.25
2023-02-02T09:23:58.503Z,99949.28
2023-02-02T09:24:45.432Z,99940.41
2023-02-02T09:25:32.762Z,99946.81
2023-02-02T09:26:28.114Z,99952.31
2023-02-02T09:27:15.243Z,99942.31
2023-02-02T09:28:02.173Z,99943.59
2023-02-02T09:29:03.494Z,99943.16
2023-02-02T09:29:50.496Z,99947.37
2023-02-02T09:30:37.557Z,99953.13
2023-02-02T09:31:25.572Z,99952.12
2023-02-02T09:32:12.695Z,99935.03
2023-02-02T09:32:59.611Z,99951.16
2023-02-02T09:33:46.832Z,99950.00
2023-02-02T09:34:33.751Z,99957.03
2023-02-02T09:35:20.668Z,99951.03
2023-02-02T09:36:15.994Z,99947.56